Time;durP1;ratioP1;P1;durP2;ratioP2;P2;SDS_P1;SDS_P2;PMS_P1;PMS_P2;Temp;Humidity;BMP_temperature;BMP_pressure;BME280_temperature;BME280_humidity;BME280_pressure;Samples;Min_cycle;Max_cycle;Signal;HPM_P1;HPM_P2
2022/11/01 00:01:40;;;;;;;28.20;15.32;;;11.70;99.90;;;;;;4320122;28;10000124;-75
2022/11/01 00:04:06;;;;;;;28.85;16.38;;;11.70;99.90;;;;;;5020429;28;20032;-76
2022/11/01 00:06:31;;;;;;;26.58;15.90;;;11.70;99.90;;;;;;5020898;28;20051;-76
2022/11/01 00:08:57;;;;;;;27.70;16.25;;;11.60;99.90;;;;;;5019745;28;20025;-76
2022/11/01 00:11:22;;;;;;;23.60;14.15;;;11.60;99.90;;;;;;5026483;28;20045;-76
2022/11/01 00:13:49;;;;;;;27.65;15.32;;;11.60;99.90;;;;;;5019173;28;20072;-76
2022/11/01 00:16:16;;;;;;;25.73;14.35;;;11.60;99.90;;;;;;5019796;28;20029;-76
2022/11/01 00:18:42;;;;;;;28.35;15.38;;;11.60;99.90;;;;;;5023131;28;20061;-76
2022/11/01 00:21:08;;;;;;;33.83;16.17;;;11.60;99.90;;;;;;5036631;28;20494;-76
2022/11/01 00:23:34;;;;;;;24.35;15.38;;;11.60;99.90;;;;;;5021255;28;20445;-76
2022/11/01 00:26:00;;;;;;;23.20;14.23;;;11.60;99.90;;;;;;5017605;28;20027;-76
2022/11/01 00:28:27;;;;;;;19.00;13.23;;;11.60;99.90;;;;;;5026896;28;20175;-76
2022/11/01 00:30:54;;;;;;;18.75;11.88;;;11.60;99.90;;;;;;5023314;28;20673;-76
2022/11/01 00:33:20;;;;;;;17.88;11.52;;;11.50;99.90;;;;;;5019043;28;20464;-76
2022/11/01 00:35:47;;;;;;;17.48;12.13;;;11.50;99.90;;;;;;5027932;28;20032;-76
2022/11/01 00:38:14;;;;;;;20.00;12.35;;;11.50;99.90;;;;;;5017926;28;20032;-76
2022/11/01 00:40:41;;;;;;;27.70;14.10;;;11.50;99.90;;;;;;5027210;28;20505;-76
2022/11/01 00:43:06;;;;;;;22.10;13.75;;;11.50;99.90;;;;;;5019635;28;20749;-76
2022/11/01 00:45:32;;;;;;;24.33;13.60;;;11.60;99.90;;;;;;5017299;28;20096;-76
2022/11/01 00:47:58;;;;;;;23.52;13.90;;;11.60;99.90;;;;;;5022363;28;20364;-76
2022/11/01 00:50:24;;;;;;;28.13;13.50;;;11.60;99.90;;;;;;5024009;28;20034;-76
2022/11/01 00:52:50;;;;;;;28.10;13.77;;;11.60;99.90;;;;;;5018301;28;20507;-76
2022/11/01 00:55:16;;;;;;;28.65;14.73;;;11.60;99.90;;;;;;5019208;28;20037;-76
2022/11/01 00:57:43;;;;;;;23.60;13.70;;;11.60;99.90;;;;;;5023963;28;21233;-76
2022/11/01 01:00:10;;;;;;;32.88;14.48;;;11.60;99.90;;;;;;5033797;28;20160;-76
2022/11/01 01:02:36;;;;;;;23.08;14.05;;;11.60;99.90;;;;;;5028986;28;20076;-76
2022/11/01 01:05:02;;;;;;;24.45;13.30;;;11.60;99.90;;;;;;5024869;28;20363;-76
2022/11/01 01:07:28;;;;;;;22.13;13.18;;;11.60;99.90;;;;;;5025863;28;20119;-76
2022/11/01 01:09:54;;;;;;;21.13;12.80;;;11.60;99.90;;;;;;5029074;28;20119;-76
2022/11/01 01:12:19;;;;;;;21.83;13.32;;;11.60;99.90;;;;;;5024566;28;20033;-76
2022/11/01 01:14:45;;;;;;;27.75;13.65;;;11.60;99.90;;;;;;5029090;28;20052;-75
2022/11/01 01:17:10;;;;;;;28.30;14.52;;;11.60;99.90;;;;;;5032381;28;20183;-76
2022/11/01 01:19:36;;;;;;;28.77;13.68;;;11.60;99.90;;;;;;5035164;28;20029;-76
2022/11/01 01:22:02;;;;;;;26.08;14.35;;;11.60;99.90;;;;;;5027913;28;20016;-76
2022/11/01 01:24:27;;;;;;;24.90;13.95;;;11.60;99.90;;;;;;5023731;28;20525;-76
2022/11/01 01:26:53;;;;;;;28.88;14.98;;;11.60;99.90;;;;;;5026851;28;20464;-76
2022/11/01 01:29:19;;;;;;;25.38;15.18;;;11.60;99.90;;;;;;5027929;28;20408;-76
2022/11/01 01:31:44;;;;;;;28.70;14.60;;;11.60;99.90;;;;;;5023306;28;20029;-76
2022/11/01 01:34:10;;;;;;;23.02;14.52;;;11.60;99.90;;;;;;5026376;28;20431;-76
2022/11/01 01:36:36;;;;;;;23.52;14.13;;;11.60;99.90;;;;;;5027489;28;20064;-76
2022/11/01 01:39:02;;;;;;;20.17;13.52;;;11.60;99.90;;;;;;5024654;28;20045;-76
2022/11/01 01:44:43;;;;;;;24.85;14.27;;;11.70;99.90;;;;;;5028575;28;20028;-76
2022/11/01 01:47:15;;;;;;;24.38;14.15;;;11.70;99.90;;;;;;5025915;28;20063;-76
2022/11/01 01:49:41;;;;;;;25.08;13.23;;;11.70;99.90;;;;;;5021660;28;20136;-76
2022/11/01 01:52:08;;;;;;;21.10;12.82;;;11.70;99.90;;;;;;5021440;28;20143;-76
2022/11/01 01:54:34;;;;;;;21.63;13.88;;;11.70;99.90;;;;;;5026840;28;20131;-76
2022/11/01 01:57:00;;;;;;;23.38;13.73;;;11.70;99.90;;;;;;5025387;28;20025;-76
2022/11/01 01:59:26;;;;;;;25.05;13.27;;;11.80;99.90;;;;;;5023298;28;20026;-76
2022/11/01 02:01:52;;;;;;;23.02;13.82;;;11.80;99.90;;;;;;5023346;28;20892;-76
2022/11/01 02:04:35;;;;;;;25.98;14.13;;;11.70;99.90;;;;;;5023882;28;20033;-76
2022/11/01 02:07:01;;;;;;;22.27;13.30;;;11.80;99.90;;;;;;5023347;28;20033;-76
2022/11/01 02:09:28;;;;;;;19.88;12.45;;;11.80;99.90;;;;;;5022308;28;20040;-76
2022/11/01 02:11:53;;;;;;;19.90;12.55;;;11.90;99.90;;;;;;5027418;28;20041;-76
2022/11/01 02:14:21;;;;;;;19.27;12.32;;;11.80;99.90;;;;;;5018632;28;20470;-76
2022/11/01 02:17:02;;;;;;;22.23;13.82;;;11.90;99.90;;;;;;5020882;28;20041;-76
2022/11/01 02:19:56;;;;;;;16.13;11.43;;;11.90;99.90;;;;;;5020981;28;20109;-76
2022/11/01 02:22:36;;;;;;;26.73;14.70;;;11.90;99.90;;;;;;5022611;28;20075;-76
2022/11/01 02:25:24;;;;;;;22.90;13.07;;;12.00;99.90;;;;;;5018417;28;20029;-76
2022/11/01 02:28:11;;;;;;;20.30;12.45;;;12.00;99.90;;;;;;5025512;28;20029;-76
2022/11/01 02:30:44;;;;;;;21.88;11.80;;;12.00;99.90;;;;;;5023423;28;20061;-76
2022/11/01 02:33:36;;;;;;;19.20;11.90;;;12.00;99.90;;;;;;5024837;28;20052;-76
2022/11/01 02:36:16;;;;;;;19.52;12.30;;;12.00;99.90;;;;;;5027253;28;20037;-76
2022/11/01 02:38:46;;;;;;;23.83;12.65;;;12.00;99.90;;;;;;5030939;28;20579;-76
2022/11/01 02:41:23;;;;;;;20.10;12.30;;;12.10;99.90;;;;;;5030888;28;20029;-76
2022/11/01 02:44:00;;;;;;;20.63;12.27;;;12.10;99.90;;;;;;5023624;28;20393;-76
2022/11/01 02:49:16;;;;;;;18.50;12.38;;;12.10;99.90;;;;;;5034607;28;20048;-76
2022/11/01 02:51:43;;;;;;;20.70;10.90;;;12.10;99.90;;;;;;5022973;28;20020;-76
2022/11/01 02:54:21;;;;;;;18.05;12.10;;;12.20;99.90;;;;;;5020947;28;20497;-76
2022/11/01 02:56:47;;;;;;;21.70;12.25;;;12.20;99.90;;;;;;5032597;28;20036;-76
2022/11/01 02:59:23;;;;;;;24.45;13.52;;;12.20;99.90;;;;;;5027815;28;20322;-76
2022/11/01 03:02:05;;;;;;;22.73;13.43;;;12.20;99.90;;;;;;5028820;28;20029;-76
2022/11/01 03:04:32;;;;;;;16.00;11.85;;;12.10;99.90;;;;;;5023201;28;20060;-75
2022/11/01 03:07:03;;;;;;;18.60;12.30;;;12.10;99.90;;;;;;5025969;28;20029;-76
2022/11/01 03:09:31;;;;;;;17.73;11.27;;;12.00;99.90;;;;;;5032150;28;20062;-75
2022/11/01 03:12:05;;;;;;;21.25;12.05;;;12.00;99.90;;;;;;5023891;28;20037;-76
2022/11/01 03:14:43;;;;;;;16.95;11.65;;;11.90;99.90;;;;;;5020840;28;20025;-76
2022/11/01 03:17:34;;;;;;;14.15;11.05;;;11.90;99.90;;;;;;5034208;28;20623;-76
2022/11/01 03:20:02;;;;;;;16.67;10.85;;;11.90;99.90;;;;;;5030205;28;20468;-76
2022/11/01 03:22:42;;;;;;;13.55;9.85;;;11.80;99.90;;;;;;5026468;28;20107;-76
2022/11/01 03:25:38;;;;;;;13.95;9.32;;;11.90;99.90;;;;;;5027939;28;20009;-76
2022/11/01 03:28:17;;;;;;;15.18;10.15;;;11.80;99.90;;;;;;5029641;28;20037;-76
2022/11/01 03:30:54;;;;;;;17.95;10.27;;;11.90;99.90;;;;;;5029276;28;20824;-76
2022/11/01 03:33:20;;;;;;;18.60;11.52;;;11.80;99.90;;;;;;5032428;28;20032;-76
2022/11/01 03:35:50;;;;;;;18.60;12.27;;;11.80;99.90;;;;;;5034720;28;20026;-76
2022/11/01 03:38:24;;;;;;;16.55;11.32;;;11.80;99.90;;;;;;5021012;28;20103;-76
2022/11/01 03:40:56;;;;;;;17.38;11.18;;;11.80;99.90;;;;;;5030541;28;20064;-76
2022/11/01 03:43:25;;;;;;;12.85;9.88;;;11.80;99.90;;;;;;5033982;28;20100;-76
2022/11/01 03:45:50;;;;;;;20.27;11.88;;;11.80;99.90;;;;;;5029628;28;20432;-76
2022/11/01 03:48:16;;;;;;;21.25;12.32;;;11.80;99.90;;;;;;5027593;28;20021;-76
2022/11/01 03:50:50;;;;;;;21.20;12.90;;;11.80;99.90;;;;;;5033580;28;20036;-76
2022/11/01 03:53:16;;;;;;;24.70;14.57;;;11.80;99.90;;;;;;5034054;28;20033;-76
2022/11/01 03:55:42;;;;;;;21.73;14.07;;;11.80;99.90;;;;;;5031903;28;20025;-76
2022/11/01 03:58:08;;;;;;;32.00;16.38;;;11.90;99.90;;;;;;5037241;28;20025;-76
2022/11/01 04:00:38;;;;;;;26.15;15.82;;;11.90;99.90;;;;;;5027906;28;20021;-76
2022/11/01 04:03:04;;;;;;;25.25;15.55;;;12.00;99.90;;;;;;5026499;28;20137;-76
2022/11/01 04:05:32;;;;;;;31.40;17.08;;;12.00;99.90;;;;;;5030430;28;20042;-76
2022/11/01 04:07:57;;;;;;;28.40;16.48;;;12.10;99.90;;;;;;5032214;28;20509;-75
2022/11/01 04:10:24;;;;;;;26.55;16.35;;;12.20;99.90;;;;;;5029610;28;20040;-76
2022/11/01 04:12:51;;;;;;;33.35;16.40;;;12.30;99.90;;;;;;5030982;28;20025;-76
2022/11/01 04:20:50;;;;;;;31.27;17.38;;;12.40;99.90;;;;;;5029051;28;20095;-76
2022/11/01 04:23:16;;;;;;;24.15;16.60;;;12.40;99.90;;;;;;5035379;28;20351;-76
2022/11/01 04:25:45;;;;;;;26.63;16.35;;;12.40;99.90;;;;;;5024625;28;20585;-76
2022/11/01 04:28:11;;;;;;;30.10;16.83;;;12.40;99.90;;;;;;5028604;28;20025;-76
2022/11/01 04:30:37;;;;;;;27.52;17.00;;;12.50;99.90;;;;;;5034255;28;20052;-76
2022/11/01 04:33:02;;;;;;;29.75;16.85;;;12.50;99.90;;;;;;5024048;28;20298;-75
2022/11/01 04:35:28;;;;;;;29.83;17.10;;;12.50;99.90;;;;;;5030124;28;20527;-76
2022/11/01 04:37:58;;;;;;;35.13;17.80;;;12.50;99.90;;;;;;5025711;28;20029;-76
2022/11/01 04:40:24;;;;;;;31.55;16.63;;;12.50;99.90;;;;;;5030981;28;20742;-76
2022/11/01 04:42:52;;;;;;;31.85;18.38;;;12.60;99.90;;;;;;5031351;28;20029;-76
2022/11/01 04:45:18;;;;;;;28.27;18.85;;;12.50;99.90;;;;;;5029886;28;20075;-76
2022/11/01 04:47:50;;;;;;;33.20;18.92;;;12.60;99.90;;;;;;5027525;28;20029;-75
2022/11/01 04:50:20;;;;;;;33.45;20.05;;;12.60;99.90;;;;;;5031990;28;20032;-75
2022/11/01 04:52:47;;;;;;;30.00;19.42;;;12.60;99.90;;;;;;5021820;28;20034;-76
2022/11/01 04:55:13;;;;;;;37.75;19.83;;;12.60;99.90;;;;;;5022326;28;20108;-75
2022/11/01 04:57:42;;;;;;;34.20;20.58;;;12.70;99.90;;;;;;5025952;28;20413;-76
2022/11/01 05:00:11;;;;;;;35.72;21.00;;;12.70;99.90;;;;;;5022105;28;20602;-76
2022/11/01 05:02:38;;;;;;;36.88;20.45;;;12.80;99.90;;;;;;5023311;28;20033;-76
2022/11/01 05:05:06;;;;;;;38.45;21.52;;;12.70;99.90;;;;;;5029685;28;20037;-75
2022/11/01 05:07:31;;;;;;;33.03;19.73;;;12.80;99.90;;;;;;5023612;28;20041;-75
2022/11/01 05:09:57;;;;;;;35.65;20.98;;;12.80;99.90;;;;;;5027044;28;20048;-76
2022/11/01 05:12:23;;;;;;;35.78;21.45;;;12.80;99.90;;;;;;5023654;28;20065;-76
2022/11/01 05:14:49;;;;;;;35.17;21.25;;;12.80;99.90;;;;;;5023650;28;20141;-76
2022/11/01 05:17:14;;;;;;;33.92;19.75;;;12.90;99.90;;;;;;5028303;28;20060;-76
2022/11/01 05:19:40;;;;;;;29.70;19.60;;;12.90;99.90;;;;;;5026401;28;20057;-76
2022/11/01 05:22:05;;;;;;;35.10;19.48;;;12.90;99.90;;;;;;5024606;28;20025;-76
2022/11/01 05:24:31;;;;;;;40.85;20.10;;;13.10;99.90;;;;;;5027894;28;20049;-76
2022/11/01 05:26:58;;;;;;;34.55;19.30;;;13.00;99.90;;;;;;5029826;28;20504;-76
2022/11/01 05:29:24;;;;;;;33.67;18.58;;;13.00;99.90;;;;;;5028761;28;20052;-76
2022/11/01 05:31:49;;;;;;;31.27;19.15;;;13.00;99.90;;;;;;5023600;28;20029;-76
2022/11/01 05:34:15;;;;;;;31.05;18.23;;;13.10;99.90;;;;;;5027238;28;20120;-74
2022/11/01 05:36:41;;;;;;;32.22;17.23;;;13.10;99.90;;;;;;5017464;28;20037;-75
2022/11/01 05:39:06;;;;;;;28.98;17.42;;;13.10;99.90;;;;;;5026799;28;20215;-76
2022/11/01 05:41:32;;;;;;;32.63;17.88;;;13.10;99.90;;;;;;5030594;28;20389;-75
2022/11/01 05:43:58;;;;;;;37.88;17.55;;;13.10;99.90;;;;;;5020793;28;20025;-76
2022/11/01 05:46:23;;;;;;;28.17;16.15;;;13.10;99.90;;;;;;5028341;28;20056;-76
2022/11/01 05:48:49;;;;;;;23.50;15.27;;;13.20;99.90;;;;;;5031568;28;20063;-76
2022/11/01 05:51:14;;;;;;;27.48;14.48;;;13.20;99.90;;;;;;5032146;28;20037;-76
2022/11/01 05:53:40;;;;;;;27.73;13.65;;;13.20;99.90;;;;;;5021693;28;20535;-75
2022/11/01 05:56:05;;;;;;;27.83;14.40;;;13.20;99.90;;;;;;5033329;28;20423;-76
2022/11/01 05:58:31;;;;;;;24.70;13.85;;;13.30;99.90;;;;;;5024562;28;20037;-76
2022/11/01 06:01:03;;;;;;;23.13;14.23;;;13.30;99.90;;;;;;5028353;28;20394;-76
2022/11/01 06:03:29;;;;;;;25.73;13.68;;;13.30;99.90;;;;;;5025764;28;20144;-76
2022/11/01 06:05:54;;;;;;;25.48;13.95;;;13.30;99.90;;;;;;5034006;28;20071;-77
2022/11/01 06:08:20;;;;;;;28.30;13.65;;;13.20;99.90;;;;;;5032039;28;20031;-76
2022/11/01 06:10:46;;;;;;;20.63;13.35;;;13.20;99.90;;;;;;5028548;28;20021;-76
2022/11/01 06:13:11;;;;;;;26.17;13.32;;;13.20;99.90;;;;;;5025897;28;20128;-76
2022/11/01 06:15:37;;;;;;;28.23;12.52;;;13.20;99.90;;;;;;5031664;28;20025;-76
2022/11/01 06:18:03;;;;;;;23.73;12.00;;;;;;;;;;5028294;28;20472;-75
2022/11/01 06:20:31;;;;;;;19.52;11.70;;;13.30;99.90;;;;;;5033488;28;20041;-76
2022/11/01 06:22:59;;;;;;;21.63;11.40;;;13.40;99.90;;;;;;5021913;28;20029;-76
2022/11/01 06:25:26;;;;;;;22.65;12.02;;;13.40;99.90;;;;;;5037532;28;20060;-76
2022/11/01 06:27:55;;;;;;;18.75;11.70;;;13.50;99.90;;;;;;5032269;28;20036;-76
2022/11/01 06:30:20;;;;;;;20.98;11.05;;;13.50;99.90;;;;;;5029897;28;20114;-76
2022/11/01 06:32:46;;;;;;;20.35;11.25;;;13.60;99.90;;;;;;5022975;28;20478;-76
2022/11/01 06:35:12;;;;;;;18.35;10.98;;;13.60;99.90;;;;;;5022044;28;20032;-75
2022/11/01 06:37:38;;;;;;;22.23;12.02;;;13.60;99.90;;;;;;5027068;28;20325;-76
2022/11/01 06:40:06;;;;;;;26.15;12.70;;;13.60;99.90;;;;;;5023793;28;20796;-76
2022/11/01 06:42:31;;;;;;;22.48;12.60;;;13.60;99.90;;;;;;5021560;28;20110;-76
2022/11/01 06:44:57;;;;;;;21.45;12.85;;;13.70;99.90;;;;;;5026515;28;20132;-75
2022/11/01 06:47:23;;;;;;;26.13;12.95;;;13.70;99.90;;;;;;5040921;28;20041;-76
2022/11/01 06:49:49;;;;;;;25.48;12.95;;;13.70;99.90;;;;;;5029646;28;20085;-78
2022/11/01 06:52:14;;;;;;;27.77;13.80;;;13.70;99.90;;;;;;5034548;28;20025;-76
2022/11/01 06:54:40;;;;;;;22.55;13.18;;;13.70;99.90;;;;;;5035706;28;20029;-76
2022/11/01 06:57:06;;;;;;;28.00;13.43;;;13.70;99.90;;;;;;5036947;28;20021;-76
2022/11/01 06:59:31;;;;;;;21.95;13.13;;;13.70;99.90;;;;;;5028285;28;20033;-76
2022/11/01 07:01:57;;;;;;;23.98;13.75;;;13.70;99.90;;;;;;5029612;28;20033;-77
2022/11/01 07:04:25;;;;;;;28.48;14.05;;;13.70;99.90;;;;;;5035719;28;20031;-77
2022/11/01 07:06:52;;;;;;;22.77;12.93;;;13.70;99.90;;;;;;5026470;28;20033;-76
2022/11/01 07:09:17;;;;;;;26.67;13.90;;;13.70;99.90;;;;;;5033622;28;20572;-76
2022/11/01 07:11:43;;;;;;;22.90;14.13;;;13.70;99.90;;;;;;5028255;28;20060;-77
2022/11/01 07:14:08;;;;;;;25.15;14.20;;;13.70;99.90;;;;;;5038858;28;20033;-76
2022/11/01 07:16:34;;;;;;;22.75;15.02;;;13.70;99.90;;;;;;5029763;28;20033;-77
2022/11/01 07:19:00;;;;;;;28.83;14.55;;;13.70;99.90;;;;;;5029775;28;20036;-76
2022/11/01 07:21:26;;;;;;;21.65;13.68;;;13.70;99.90;;;;;;5030969;28;20017;-76
2022/11/01 07:23:52;;;;;;;26.88;14.60;;;13.80;99.90;;;;;;5033324;28;20803;-76
2022/11/01 07:26:19;;;;;;;26.08;14.75;;;13.80;99.90;;;;;;5038962;28;20488;-76
2022/11/01 07:28:44;;;;;;;21.75;14.27;;;13.80;99.90;;;;;;5047269;28;20350;-76
2022/11/01 07:31:10;;;;;;;22.42;15.30;;;13.80;99.90;;;;;;5033848;28;20328;-76
2022/11/01 07:33:36;;;;;;;27.02;15.38;;;13.80;99.90;;;;;;5032391;28;20469;-76
2022/11/01 07:36:03;;;;;;;24.65;15.25;;;13.90;99.90;;;;;;5039273;28;20037;-76
2022/11/01 07:38:29;;;;;;;27.25;17.17;;;13.90;99.90;;;;;;5035977;28;20056;-76
2022/11/01 07:40:54;;;;;;;23.42;14.20;;;14.00;99.90;;;;;;5034731;28;20076;-76
2022/11/01 07:43:21;;;;;;;23.55;14.80;;;14.00;99.90;;;;;;5041322;28;20033;-76
2022/11/01 07:45:47;;;;;;;24.55;14.50;;;14.10;99.90;;;;;;5029849;28;20421;-75
2022/11/01 07:48:15;;;;;;;19.67;13.75;;;14.10;99.90;;;;;;5028985;28;20063;-76
2022/11/01 07:50:42;;;;;;;19.67;13.27;;;14.10;99.90;;;;;;5035270;28;20032;-76
2022/11/01 07:53:09;;;;;;;22.55;13.50;;;14.10;99.90;;;;;;5039286;28;20034;-76
2022/11/01 07:55:36;;;;;;;22.70;13.30;;;14.20;99.90;;;;;;5035083;28;20410;-76
2022/11/01 07:58:02;;;;;;;22.70;13.23;;;14.20;99.90;;;;;;5043428;28;20037;-76
2022/11/01 08:00:28;;;;;;;20.95;12.75;;;14.30;99.90;;;;;;5030345;28;20111;-76
2022/11/01 08:03:07;;;;;;;16.83;12.25;;;14.30;99.90;;;;;;5038067;28;20029;-76
2022/11/01 08:05:33;;;;;;;18.35;12.20;;;14.30;99.90;;;;;;5034390;28;20088;-75
2022/11/01 08:07:59;;;;;;;19.45;13.00;;;14.40;99.90;;;;;;5032718;28;20040;-76
2022/11/01 08:10:26;;;;;;;20.83;13.18;;;14.40;99.90;;;;;;5031722;28;20029;-76
2022/11/01 08:12:51;;;;;;;22.40;13.82;;;14.40;99.90;;;;;;5033233;28;20075;-76
2022/11/01 08:15:17;;;;;;;20.30;12.45;;;14.40;99.90;;;;;;5029358;28;20033;-75
2022/11/01 08:17:43;;;;;;;22.50;12.95;;;14.40;99.90;;;;;;5031915;28;20029;-77
2022/11/01 08:20:10;;;;;;;18.52;12.90;;;14.40;99.90;;;;;;5030911;28;20433;-76
2022/11/01 08:22:39;;;;;;;19.13;12.57;;;14.40;99.90;;;;;;5038834;28;20065;-77
2022/11/01 08:25:06;;;;;;;22.38;12.00;;;14.50;99.90;;;;;;5043446;28;20555;-76
2022/11/01 08:27:32;;;;;;;18.85;11.32;;;14.50;99.90;;;;;;5039701;28;20029;-76
2022/11/01 08:29:57;;;;;;;22.17;12.23;;;14.50;99.90;;;;;;5033276;28;20052;-76
2022/11/01 08:32:23;;;;;;;21.50;12.35;;;14.50;99.90;;;;;;5032607;28;20073;-76
2022/11/01 08:34:48;;;;;;;18.70;11.30;;;14.60;99.90;;;;;;5040753;28;20053;-76
2022/11/01 08:37:14;;;;;;;18.23;11.68;;;14.60;99.90;;;;;;5038959;28;21671;-76
2022/11/01 08:39:40;;;;;;;19.05;11.43;;;14.60;99.90;;;;;;5035896;28;20528;-76
2022/11/01 08:42:05;;;;;;;21.70;12.13;;;14.70;99.90;;;;;;5030069;28;20025;-76
2022/11/01 08:44:33;;;;;;;26.88;11.60;;;14.70;99.90;;;;;;5031955;28;20713;-77
2022/11/01 08:47:00;;;;;;;16.38;10.82;;;14.70;99.90;;;;;;5037507;28;20409;-76
2022/11/01 08:49:26;;;;;;;17.80;10.70;;;14.70;99.90;;;;;;5024242;28;20037;-76
2022/11/01 08:51:52;;;;;;;13.88;9.75;;;14.80;99.90;;;;;;5037415;28;20459;-77
2022/11/01 08:54:18;;;;;;;20.52;12.85;;;14.80;99.90;;;;;;5027834;28;20354;-76
2022/11/01 08:56:44;;;;;;;18.67;10.32;;;14.90;99.90;;;;;;5032834;28;20048;-76
2022/11/01 08:59:10;;;;;;;21.00;10.10;;;14.90;99.90;;;;;;5027047;28;20041;-76
2022/11/01 09:01:36;;;;;;;20.30;10.43;;;14.90;99.90;;;;;;5027337;28;20033;-76
2022/11/01 09:04:01;;;;;;;17.23;9.52;;;14.90;99.90;;;;;;5028419;28;20021;-76
2022/11/01 09:06:28;;;;;;;15.18;9.30;;;15.00;99.90;;;;;;5027702;28;20049;-76
2022/11/01 09:08:55;;;;;;;13.20;8.95;;;15.10;99.90;;;;;;5037874;28;20025;-76
2022/11/01 09:11:23;;;;;;;16.48;9.00;;;15.10;99.90;;;;;;5031636;28;20447;-76
2022/11/01 09:13:49;;;;;;;14.73;8.70;;;15.10;99.90;;;;;;5030824;28;20162;-75
2022/11/01 09:16:15;;;;;;;14.43;9.43;;;15.10;99.90;;;;;;5037420;28;20279;-75
2022/11/01 09:18:41;;;;;;;16.33;9.95;;;15.30;99.90;;;;;;5037398;28;20031;-76
2022/11/01 09:21:07;;;;;;;17.08;8.55;;;15.40;99.90;;;;;;5033521;28;20401;-73
2022/11/01 09:23:34;;;;;;;12.73;7.82;;;15.30;99.90;;;;;;5034195;28;20026;-74
2022/11/01 09:26:05;;;;;;;20.13;8.70;;;15.40;99.90;;;;;;5038108;28;20048;-74
2022/11/01 09:28:31;;;;;;;13.77;8.43;;;15.50;99.90;;;;;;5029628;28;20025;-74
2022/11/01 09:31:11;;;;;;;14.48;7.72;;;15.50;99.90;;;;;;5045476;28;20224;-76
2022/11/01 09:33:36;;;;;;;14.05;8.20;;;15.40;99.90;;;;;;5037987;28;20024;-75
2022/11/01 09:36:02;;;;;;;14.43;8.40;;;15.40;99.90;;;;;;5027584;28;20022;-76
2022/11/01 09:38:28;;;;;;;15.57;8.38;;;15.40;99.90;;;;;;5026867;28;20071;-76
2022/11/01 09:40:56;;;;;;;15.85;8.63;;;15.30;99.90;;;;;;5042616;28;20166;-75
2022/11/01 09:43:25;;;;;;;11.10;7.75;;;15.30;99.90;;;;;;5027754;28;20025;-75
2022/11/01 09:45:53;;;;;;;16.60;7.70;;;15.30;99.90;;;;;;5032953;28;20462;-77
2022/11/01 09:48:19;;;;;;;11.98;7.50;;;15.30;99.90;;;;;;5039098;28;20516;-75
2022/11/01 09:50:46;;;;;;;15.63;8.02;;;15.30;99.90;;;;;;5026579;28;20034;-75
2022/11/01 09:53:24;;;;;;;12.80;7.35;;;15.30;99.90;;;;;;5039943;28;20170;-76
2022/11/01 09:56:12;;;;;;;11.20;7.15;;;15.30;99.90;;;;;;5035831;28;20063;-78
2022/11/01 09:59:00;;;;;;;13.95;7.57;;;15.30;99.90;;;;;;5039827;28;20060;-75
2022/11/01 10:01:38;;;;;;;17.48;7.57;;;15.30;99.90;;;;;;5040134;28;20142;-77
2022/11/01 10:04:12;;;;;;;11.15;7.05;;;15.40;99.90;;;;;;5036193;28;20358;-76
2022/11/01 10:06:44;;;;;;;12.02;7.05;;;15.40;99.90;;;;;;5031189;28;20351;-75
2022/11/01 10:09:44;;;;;;;13.98;6.85;;;15.50;99.90;;;;;;5035032;28;20464;-75
2022/11/01 10:12:26;;;;;;;11.07;6.13;;;15.60;99.90;;;;;;5037339;28;20022;-76
2022/11/01 10:15:22;;;;;;;12.38;6.50;;;15.70;99.90;;;;;;5036498;28;20029;-75
2022/11/01 10:17:51;;;;;;;13.88;5.60;;;15.80;99.90;;;;;;5032185;28;20641;-77
2022/11/01 10:20:21;;;;;;;10.52;6.00;;;16.00;99.90;;;;;;5043951;28;20032;-76
2022/11/01 10:22:49;;;;;;;9.48;3.72;;;16.10;99.90;;;;;;5027177;28;20621;-76
2022/11/01 10:25:31;;;;;;;8.43;4.30;;;16.20;99.90;;;;;;5031647;28;20033;-76
2022/11/01 10:28:24;;;;;;;9.88;3.60;;;16.30;99.90;;;;;;5038721;28;20535;-76
2022/11/01 10:30:55;;;;;;;9.57;3.87;;;16.30;99.90;;;;;;5046004;28;20404;-75
2022/11/01 10:33:34;;;;;;;8.18;3.70;;;16.40;99.90;;;;;;5042279;28;20044;-75
2022/11/01 10:36:04;;;;;;;10.65;4.28;;;16.40;99.90;;;;;;5055645;28;20029;-75
2022/11/01 10:38:47;;;;;;;6.70;3.47;;;16.50;99.90;;;;;;5026283;28;20046;-76
2022/11/01 10:41:57;;;;;;;7.25;3.20;;;16.50;99.90;;;;;;5021554;28;20037;-76
2022/11/01 10:44:27;;;;;;;5.57;2.42;;;16.60;99.90;;;;;;5028227;28;20038;-77
2022/11/01 10:46:54;;;;;;;4.65;2.10;;;16.70;99.90;;;;;;5032098;28;20049;-75
2022/11/01 10:49:26;;;;;;;7.00;2.65;;;16.60;99.90;;;;;;5014687;28;20033;-77
2022/11/01 10:52:01;;;;;;;9.63;2.60;;;16.70;99.90;;;;;;5018695;28;20033;-76
2022/11/01 10:54:29;;;;;;;10.38;2.17;;;16.80;99.90;;;;;;5017186;28;20037;-76
2022/11/01 10:57:00;;;;;;;5.35;2.20;;;16.90;99.90;;;;;;5012688;28;20041;-76
2022/11/01 10:59:34;;;;;;;5.70;2.13;;;17.00;99.90;;;;;;5017195;28;20098;-76
2022/11/01 11:02:07;;;;;;;3.97;1.90;;;17.00;99.90;;;;;;5022897;28;20482;-76
2022/11/01 11:04:33;;;;;;;5.72;1.80;;;17.10;99.90;;;;;;5023371;28;20026;-77
2022/11/01 11:06:58;;;;;;;5.20;1.92;;;17.20;99.90;;;;;;5029250;28;20080;-77
2022/11/01 11:09:33;;;;;;;7.47;2.05;;;17.10;99.90;;;;;;5016865;28;20187;-76
2022/11/01 11:12:16;;;;;;;4.00;1.73;;;17.10;99.90;;;;;;5018075;28;20022;-77
2022/11/01 11:14:42;;;;;;;;;;;17.10;99.90;;;;;;4326216;28;10000816;-78
2022/11/01 11:17:36;;;;;;;4.43;2.00;;;17.10;99.90;;;;;;5014643;28;19953;-77
2022/11/01 11:20:05;;;;;;;2.50;1.80;;;17.10;99.90;;;;;;5029391;28;20049;-77
2022/11/01 11:22:36;;;;;;;5.80;2.10;;;16.90;99.90;;;;;;5017527;28;20041;-77
2022/11/01 11:25:03;;;;;;;5.25;1.70;;;16.70;99.90;;;;;;5012046;28;20389;-77
2022/11/01 11:27:31;;;;;;;2.80;1.60;;;16.70;99.90;;;;;;5016602;28;20052;-77
2022/11/01 11:30:01;;;;;;;3.45;1.40;;;16.70;99.90;;;;;;5031461;28;20499;-76
2022/11/01 11:32:37;;;;;;;6.45;1.70;;;16.50;99.90;;;;;;5010079;28;20033;-77
2022/11/01 11:35:16;;;;;;;7.18;1.63;;;16.50;99.90;;;;;;5020961;28;20030;-76
2022/11/01 11:38:03;;;;;;;5.32;1.65;;;16.70;99.90;;;;;;5013020;28;20494;-77
2022/11/01 11:40:38;;;;;;;4.47;1.73;;;16.90;99.90;;;;;;5024591;28;20120;-77
2022/11/01 11:43:22;;;;;;;2.33;1.50;;;17.00;99.90;;;;;;5015303;28;20116;-76
2022/11/01 11:46:22;;;;;;;6.80;2.80;;;17.00;99.90;;;;;;5023878;28;20029;-76
2022/11/01 11:49:02;;;;;;;2.70;1.52;;;17.10;99.90;;;;;;5023946;28;20170;-76
2022/11/01 11:51:31;;;;;;;5.10;1.40;;;17.30;99.90;;;;;;5026988;28;21169;-76
2022/11/01 11:54:08;;;;;;;5.18;1.50;;;17.40;99.90;;;;;;5023226;28;20056;-75
2022/11/01 11:56:34;;;;;;;2.75;1.20;;;17.50;99.90;;;;;;5021633;28;20500;-77
2022/11/01 11:59:06;;;;;;;5.47;1.38;;;17.60;99.90;;;;;;4326221;28;10000823;-77
2022/11/01 12:01:33;;;;;;;5.15;1.63;;;17.80;99.90;;;;;;5033747;28;20133;-76
2022/11/01 12:04:17;;;;;;;6.93;1.42;;;17.80;99.90;;;;;;5028444;28;20792;-77
2022/11/01 12:06:44;;;;;;;4.63;1.65;;;17.90;99.90;;;;;;5025312;28;20394;-77
2022/11/01 12:09:43;;;;;;;3.25;1.70;;;17.90;99.90;;;;;;5017844;28;20130;-77
2022/11/01 12:12:17;;;;;;;6.22;1.77;;;18.00;99.90;;;;;;5023127;28;20072;-77
2022/11/01 12:14:43;;;;;;;3.22;1.50;;;;;;;;;;5023867;28;20021;-77
2022/11/01 12:17:27;;;;;;;3.65;1.63;;;18.00;99.90;;;;;;5025842;28;20054;-77
2022/11/01 12:20:15;;;;;;;4.97;1.50;;;18.10;99.90;;;;;;5025730;28;20032;-77
2022/11/01 12:23:09;;;;;;;7.10;1.42;;;18.20;99.90;;;;;;5016008;28;20104;-77
2022/11/01 12:25:36;;;;;;;3.72;1.58;;;18.20;99.90;;;;;;5028447;28;20032;-77
2022/11/01 12:28:06;;;;;;;5.10;1.80;;;18.20;99.90;;;;;;5020948;28;20440;-77
2022/11/01 12:30:34;;;;;;;4.63;1.55;;;18.20;99.90;;;;;;5018618;28;20036;-78
2022/11/01 12:33:11;;;;;;;3.28;1.23;;;18.20;99.90;;;;;;5026864;28;20143;-78
2022/11/01 12:35:43;;;;;;;4.20;1.08;;;18.30;99.90;;;;;;5015106;28;20037;-78
2022/11/01 12:38:37;;;;;;;4.25;1.27;;;18.40;99.90;;;;;;5017981;28;20030;-79
2022/11/01 12:41:37;;;;;;;6.13;1.02;;;18.30;99.90;;;;;;5032881;28;20034;-78
2022/11/01 12:44:08;;;;;;;2.75;1.00;;;18.30;99.90;;;;;;5012046;28;20026;-77
2022/11/01 12:46:44;;;;;;;6.97;1.17;;;18.20;99.90;;;;;;5012211;28;20035;-78
2022/11/01 12:49:35;;;;;;;5.28;1.17;;;18.20;99.90;;;;;;4666173;28;10000622;-78
2022/11/01 12:52:17;;;;;;;6.72;1.00;;;18.20;99.90;;;;;;5018345;28;20108;-78
2022/11/01 12:55:17;;;;;;;2.05;0.82;;;18.20;99.90;;;;;;5011572;28;20508;-77
2022/11/01 12:57:43;;;;;;;5.05;0.90;;;;;;;;;;5023928;28;20042;-78
2022/11/01 13:00:14;;;;;;;3.88;0.90;;;18.20;99.90;;;;;;5013409;28;20025;-77